Time;durP1;ratioP1;P1;durP2;ratioP2;P2;SDS_P1;SDS_P2;PMS_P1;PMS_P2;Temp;Humidity;BMP_temperature;BMP_pressure;BME280_temperature;BME280_humidity;BME280_pressure;Samples;Min_cycle;Max_cycle;Signal;HPM_P1;HPM_P2
2023/11/25 00:01:36;;;;;;;28.00;16.80;;;;;;;0.86;100.00;95440.09;110253;1242;59640;-66
2023/11/25 00:04:07;;;;;;;23.40;15.60;;;;;;;0.91;100.00;95436.18;110219;1243;71561;-66
2023/11/25 00:06:36;;;;;;;26.30;15.80;;;;;;;0.97;100.00;95437.64;110105;1252;69165;-66
2023/11/25 00:09:07;;;;;;;22.50;15.10;;;;;;;1.04;100.00;95435.85;110171;1241;68563;-66
2023/11/25 00:11:38;;;;;;;26.00;16.50;;;;;;;1.09;100.00;95431.09;110160;1241;59703;-66
2023/11/25 00:14:08;;;;;;;24.70;16.40;;;;;;;1.12;100.00;95426.55;110162;1242;59675;-66
2023/11/25 00:16:38;;;;;;;24.50;15.80;;;;;;;1.15;100.00;95433.05;110164;1249;71384;-66
2023/11/25 00:19:10;;;;;;;27.10;18.40;;;;;;;1.19;100.00;95435.36;110183;1242;69522;-66
2023/11/25 00:21:42;;;;;;;30.40;19.10;;;;;;;1.22;100.00;95429.84;110138;1243;68357;-66
2023/11/25 00:24:12;;;;;;;27.70;17.80;;;;;;;1.25;100.00;95421.73;110219;1244;59721;-68
2023/11/25 00:26:42;;;;;;;25.80;16.50;;;;;;;1.27;100.00;95415.96;110155;1244;59710;-66
2023/11/25 00:29:12;;;;;;;;;;;;;;;1.29;100.00;95424.88;110214;1243;71438;-66
2023/11/25 00:31:42;;;;;;;18.70;12.70;;;;;;;1.33;100.00;95429.92;110120;1248;68520;-66
2023/11/25 00:34:12;;;;;;;25.30;14.90;;;;;;;1.35;100.00;95430.49;110161;1244;69106;-66
2023/11/25 00:36:45;;;;;;;19.20;12.20;;;;;;;1.27;100.00;95432.78;110170;1248;59745;-66
2023/11/25 00:39:17;;;;;;;23.20;15.50;;;;;;;1.22;100.00;95430.50;110185;1242;59676;-66
2023/11/25 00:41:48;;;;;;;22.20;12.60;;;;;;;1.22;100.00;95434.98;110168;1243;71343;-66
2023/11/25 00:44:20;;;;;;;21.50;13.80;;;;;;;1.24;100.00;95436.90;110161;1242;69229;-66
2023/11/25 00:46:51;;;;;;;18.90;13.00;;;;;;;1.26;100.00;95436.98;110166;1247;68551;-66
2023/11/25 00:49:21;;;;;;;23.50;13.90;;;;;;;1.27;100.00;95429.85;110181;1243;59699;-66
2023/11/25 00:51:54;;;;;;;24.70;15.70;;;;;;;1.28;100.00;95425.10;110195;1241;59696;-66
2023/11/25 00:54:24;;;;;;;25.90;17.10;;;;;;;1.31;100.00;95414.83;110246;1241;70656;-67
2023/11/25 00:56:58;;;;;;;28.80;18.20;;;;;;;1.31;100.00;95403.01;110251;1243;69222;-69
2023/11/25 00:59:29;;;;;;;23.60;14.80;;;;;;;1.32;100.00;95397.80;110195;1242;69397;-67
2023/11/25 01:02:01;;;;;;;23.90;16.90;;;;;;;1.32;100.00;95389.48;110243;1242;59732;-67
2023/11/25 01:04:32;;;;;;;28.70;18.80;;;;;;;1.33;100.00;95392.20;110242;1241;59692;-68
2023/11/25 01:07:04;;;;;;;27.30;17.20;;;;;;;1.30;100.00;95383.11;110248;1243;70728;-68
2023/11/25 01:09:38;;;;;;;30.40;19.40;;;;;;;1.28;100.00;95376.91;110190;1243;69148;-68
2023/11/25 01:12:11;;;;;;;26.90;17.60;;;;;;;1.24;100.00;95381.96;110196;1242;69127;-68
2023/11/25 01:14:44;;;;;;;45.50;28.50;;;;;;;1.22;100.00;95379.75;110192;1240;59742;-66
2023/11/25 01:17:16;;;;;;;32.60;20.10;;;;;;;1.17;100.00;95373.71;110259;1242;59681;-66
2023/11/25 01:19:52;;;;;;;33.90;20.40;;;;;;;1.15;100.00;95364.05;110123;1241;71382;-66
2023/11/25 01:22:24;;;;;;;32.00;21.90;;;;;;;1.10;100.00;95363.05;110206;1243;69384;-67
2023/11/25 01:24:57;;;;;;;36.60;21.80;;;;;;;1.06;100.00;95358.84;110231;1242;69283;-66
2023/11/25 01:27:29;;;;;;;35.10;20.90;;;;;;;1.03;100.00;95355.27;110246;1241;59743;-66
2023/11/25 01:30:01;;;;;;;35.30;22.40;;;;;;;0.98;100.00;95348.21;110237;1242;59737;-66
2023/11/25 01:32:31;;;;;;;30.70;19.90;;;;;;;0.94;100.00;95338.70;110212;1242;70779;-66
2023/11/25 01:35:00;;;;;;;;;;;;;;;0.92;100.00;95330.45;110119;1252;69255;-66
2023/11/25 01:37:31;;;;;;;25.60;16.20;;;;;;;0.91;100.00;95332.27;110161;1242;69294;-66
2023/11/25 01:40:05;;;;;;;29.80;21.10;;;;;;;0.89;100.00;95340.25;110188;1242;59785;-67
2023/11/25 01:42:36;;;;;;;30.60;18.70;;;;;;;0.87;100.00;95348.10;109883;1246;59613;-67
2023/11/25 01:45:09;;;;;;;26.10;17.20;;;;;;;0.87;100.00;95354.13;110249;1242;69610;-67
2023/11/25 01:47:41;;;;;;;29.10;20.30;;;;;;;0.88;100.00;95356.65;110230;1242;68296;-67
2023/11/25 01:50:21;;;;;;;40.70;24.80;;;;;;;0.91;100.00;95347.50;110128;1246;69481;-67
2023/11/25 01:53:10;;;;;;;40.50;24.50;;;;;;;0.88;100.00;95329.73;110098;1245;59673;-67
2023/11/25 01:55:45;;;;;;;35.20;23.40;;;;;;;0.80;100.00;95320.80;110229;1248;59646;-67
2023/11/25 01:58:27;;;;;;;37.70;20.40;;;;;;;0.77;100.00;95314.31;110144;1242;71416;-67
2023/11/25 02:01:00;;;;;;;32.70;20.80;;;;;;;0.75;100.00;95301.78;110096;1245;68485;-67
2023/11/25 02:03:34;;;;;;;33.10;21.80;;;;;;;0.74;100.00;95300.80;110132;1241;68400;-66
2023/11/25 02:06:06;;;;;;;34.80;19.30;;;;;;;0.74;100.00;95311.77;110096;1244;59737;-67
2023/11/25 02:08:37;;;;;;;31.60;18.40;;;;;;;0.74;100.00;95321.56;110183;1245;59660;-67
2023/11/25 02:11:11;;;;;;;27.20;16.10;;;;;;;0.72;100.00;95327.32;110143;1241;71407;-67
2023/11/25 02:13:49;;;;;;;28.70;18.90;;;;;;;0.72;100.00;95321.83;110123;1243;68129;-67
2023/11/25 02:16:22;;;;;;;27.20;17.40;;;;;;;0.71;100.00;95317.31;110145;1242;69505;-67
2023/11/25 02:18:55;;;;;;;30.40;17.10;;;;;;;0.70;100.00;95303.82;110114;1241;59760;-67
2023/11/25 02:21:39;;;;;;;32.00;18.50;;;;;;;0.84;100.00;95294.66;110136;1243;59751;-67
2023/11/25 02:24:12;;;;;;;33.80;19.50;;;;;;;0.84;100.00;95299.14;110142;1245;71762;-68
2023/11/25 02:26:59;;;;;;;35.10;20.10;;;;;;;0.83;100.00;95310.67;110191;1245;69175;-67
2023/11/25 02:29:32;;;;;;;34.60;20.10;;;;;;;0.81;100.00;95324.15;110165;1245;68460;-67
2023/11/25 02:32:07;;;;;;;36.80;22.60;;;;;;;0.81;100.00;95339.42;110241;1247;59787;-67
2023/11/25 02:34:41;;;;;;;47.30;28.40;;;;;;;0.79;100.00;95335.98;110156;1241;59748;-67
2023/11/25 02:37:15;;;;;;;41.60;26.70;;;;;;;0.73;100.00;95323.04;110181;1245;70644;-67
2023/11/25 02:39:52;;;;;;;53.90;31.40;;;;;;;0.68;100.00;95315.59;110132;1243;69146;-67
2023/11/25 02:42:22;;;;;;;49.30;30.00;;;;;;;0.65;100.00;95314.27;110112;1244;68593;-67
2023/11/25 02:44:54;;;;;;;53.40;29.50;;;;;;;0.64;100.00;95328.06;110141;1245;59698;-67
2023/11/25 02:47:29;;;;;;;52.70;31.30;;;;;;;0.61;100.00;95320.90;110118;1244;59654;-67
2023/11/25 02:50:02;;;;;;;49.90;29.10;;;;;;;0.51;100.00;95317.61;110150;1245;71404;-67
2023/11/25 02:52:34;;;;;;;43.00;26.70;;;;;;;0.42;100.00;95317.70;110164;1245;69259;-67
2023/11/25 02:55:13;;;;;;;45.80;27.00;;;;;;;0.47;100.00;95318.06;110106;1243;68545;-67
2023/11/25 02:57:56;;;;;;;;;;;;;;;0.63;100.00;95323.31;110156;1245;59790;-67
2023/11/25 03:00:33;;;;;;;42.40;24.10;;;;;;;0.67;100.00;95321.64;110112;1244;59748;-67
2023/11/25 03:03:16;;;;;;;35.60;23.50;;;;;;;0.72;100.00;95324.07;110122;1243;71395;-67
2023/11/25 03:05:53;;;;;;;33.30;20.00;;;;;;;0.78;100.00;95326.09;110126;1241;68395;-67
2023/11/25 03:08:27;;;;;;;32.60;20.60;;;;;;;0.83;100.00;95329.33;110108;1245;69292;-67
2023/11/25 03:11:04;;;;;;;34.20;20.40;;;;;;;0.87;100.00;95326.66;110175;1243;59737;-67
2023/11/25 03:13:37;;;;;;;32.00;18.40;;;;;;;0.91;100.00;95321.46;110150;1242;59695;-66
2023/11/25 03:16:10;;;;;;;24.70;16.90;;;;;;;0.93;100.00;95319.77;110168;1241;70855;-66
2023/11/25 03:18:42;;;;;;;27.30;17.70;;;;;;;0.94;100.00;95321.77;110165;1246;68913;-66
2023/11/25 03:21:20;;;;;;;31.70;18.60;;;;;;;0.97;100.00;95313.66;110153;1241;68533;-66
2023/11/25 03:23:53;;;;;;;28.90;19.60;;;;;;;1.00;100.00;95309.46;110177;1244;59747;-66
2023/11/25 03:26:28;;;;;;;39.60;24.80;;;;;;;1.01;100.00;95305.46;110159;1244;59669;-66
2023/11/25 03:28:58;;;;;;;37.70;23.50;;;;;;;1.00;100.00;95300.20;110150;1245;71398;-66
2023/11/25 03:31:42;;;;;;;40.90;23.80;;;;;;;0.97;100.00;95302.52;110179;1245;69106;-66
2023/11/25 03:34:17;;;;;;;34.60;22.40;;;;;;;0.91;100.00;95304.31;110135;1244;69144;-67
2023/11/25 03:36:50;;;;;;;38.10;24.90;;;;;;;0.90;100.00;95304.56;110119;1241;59661;-67
2023/11/25 03:39:23;;;;;;;44.40;26.30;;;;;;;0.85;100.00;95303.52;110163;1245;59735;-66
2023/11/25 03:41:58;;;;;;;41.30;25.10;;;;;;;0.83;100.00;95300.75;110179;1243;71330;-66
2023/11/25 03:44:36;;;;;;;40.30;24.50;;;;;;;0.84;100.00;95300.16;110107;1241;68644;-67
2023/11/25 03:47:10;;;;;;;39.70;24.70;;;;;;;0.82;100.00;95300.08;110170;1243;68746;-67
2023/11/25 03:49:41;;;;;;;41.30;27.40;;;;;;;0.82;100.00;95307.64;110159;1244;59752;-66
2023/11/25 03:52:15;;;;;;;42.50;26.60;;;;;;;0.83;100.00;95320.77;110187;1245;59743;-66
2023/11/25 03:54:46;;;;;;;45.90;27.30;;;;;;;0.82;100.00;95328.02;110165;1243;70781;-66
2023/11/25 03:57:22;;;;;;;38.60;23.70;;;;;;;0.83;100.00;95329.35;110165;1243;68463;-66
2023/11/25 03:59:54;;;;;;;38.30;23.90;;;;;;;0.85;100.00;95328.56;110139;1243;68339;-66
2023/11/25 04:02:24;;;;;;;;;;;;;;;0.85;100.00;95330.41;110083;1245;59757;-66
2023/11/25 04:04:55;;;;;;;34.70;19.80;;;;;;;0.86;100.00;95325.41;110182;1242;59662;-66
2023/11/25 04:07:26;;;;;;;31.20;18.90;;;;;;;0.88;100.00;95330.08;110212;1240;70677;-66
2023/11/25 04:09:56;;;;;;;31.00;18.40;;;;;;;0.89;100.00;95327.73;110149;1240;68663;-66
2023/11/25 04:12:29;;;;;;;32.00;19.10;;;;;;;0.90;100.00;95323.55;110180;1243;68593;-66
2023/11/25 04:15:07;;;;;;;30.00;19.30;;;;;;;0.92;100.00;95320.54;110201;1242;59681;-67
2023/11/25 04:17:41;;;;;;;32.50;21.10;;;;;;;0.92;100.00;95319.30;110184;1242;59680;-67
2023/11/25 04:20:24;;;;;;;29.90;19.80;;;;;;;0.93;100.00;95320.25;110268;1242;70658;-67
2023/11/25 04:22:59;;;;;;;30.50;17.60;;;;;;;0.95;100.00;95319.92;110175;1241;68481;-67
2023/11/25 04:25:31;;;;;;;29.60;17.60;;;;;;;0.98;100.00;95321.27;110172;1242;67799;-67
2023/11/25 04:28:06;;;;;;;30.80;20.30;;;;;;;1.03;100.00;95322.15;110098;1244;59689;-67
2023/11/25 04:30:41;;;;;;;26.70;17.70;;;;;;;1.07;100.00;95317.11;110187;1245;59593;-67
2023/11/25 04:33:12;;;;;;;38.60;24.30;;;;;;;1.09;100.00;95313.52;110163;1242;71357;-67
2023/11/25 04:35:42;;;;;;;39.50;24.30;;;;;;;1.09;100.00;95314.73;110166;1241;68533;-67
2023/11/25 04:38:13;;;;;;;39.80;24.60;;;;;;;1.07;100.00;95307.52;110142;1243;68333;-67
2023/11/25 04:40:45;;;;;;;45.40;28.80;;;;;;;0.99;100.00;95306.80;110103;1242;59734;-67
2023/11/25 04:43:16;;;;;;;42.20;25.60;;;;;;;0.98;100.00;95312.53;110191;1242;59734;-67
2023/11/25 04:45:48;;;;;;;47.00;28.30;;;;;;;0.98;100.00;95304.83;110149;1243;71447;-67
2023/11/25 04:48:19;;;;;;;38.40;25.80;;;;;;;0.98;100.00;95300.39;110216;1242;69172;-67
2023/11/25 04:50:49;;;;;;;34.80;23.40;;;;;;;0.96;100.00;95309.73;110167;1241;69259;-67
2023/11/25 04:53:21;;;;;;;43.60;28.70;;;;;;;0.90;100.00;95320.77;110155;1241;59680;-67
2023/11/25 04:55:51;;;;;;;48.80;29.70;;;;;;;0.89;100.00;95314.41;110168;1243;60005;-67
2023/11/25 04:58:23;;;;;;;38.50;25.10;;;;;;;0.89;100.00;95310.98;110228;1242;70555;-68
2023/11/25 05:00:54;;;;;;;40.30;25.90;;;;;;;0.87;100.00;95309.35;110135;1241;68723;-68
2023/11/25 05:03:25;;;;;;;37.30;23.70;;;;;;;0.88;100.00;95317.34;110166;1244;69209;-67
2023/11/25 05:05:56;;;;;;;44.00;26.60;;;;;;;0.90;100.00;95327.20;110180;1241;59686;-67
2023/11/25 05:08:26;;;;;;;39.10;26.10;;;;;;;0.89;100.00;95326.41;110140;1241;59694;-67
2023/11/25 05:10:57;;;;;;;38.50;26.90;;;;;;;0.88;100.00;95323.51;110177;1244;71277;-67
2023/11/25 05:13:31;;;;;;;36.00;23.30;;;;;;;0.88;100.00;95320.96;110139;1241;68746;-67
2023/11/25 05:16:03;;;;;;;39.10;25.80;;;;;;;0.89;100.00;95314.71;110172;1241;68363;-67
2023/11/25 05:18:33;;;;;;;35.10;22.30;;;;;;;0.94;100.00;95311.81;110115;1244;59709;-67
2023/11/25 05:21:07;;;;;;;32.20;22.30;;;;;;;0.97;100.00;95301.61;110130;1245;59682;-67
2023/11/25 05:23:37;;;;;;;37.00;23.00;;;;;;;1.00;100.00;95295.95;110212;1244;70703;-67
2023/11/25 05:26:08;;;;;;;38.80;22.50;;;;;;;1.01;100.00;95292.94;110200;1244;69275;-67
2023/11/25 05:28:38;;;;;;;41.60;23.80;;;;;;;1.05;100.00;95293.27;110219;1241;68441;-66
2023/11/25 05:31:08;;;;;;;36.60;21.40;;;;;;;1.07;100.00;95292.95;110176;1243;59700;-66
2023/11/25 05:33:38;;;;;;;38.80;25.30;;;;;;;1.08;100.00;95284.77;110153;1245;59703;-67
2023/11/25 05:36:10;;;;;;;41.00;23.70;;;;;;;1.11;100.00;95286.63;110188;1244;70660;-68
2023/11/25 05:38:40;;;;;;;38.60;21.60;;;;;;;1.11;100.00;95284.06;110187;1245;69098;-66
2023/11/25 05:41:13;;;;;;;38.60;23.50;;;;;;;1.11;100.00;95280.09;110173;1244;70263;-67
2023/11/25 05:43:46;;;;;;;38.60;22.60;;;;;;;1.12;100.00;95272.81;110213;1243;59733;-66
2023/11/25 05:46:23;;;;;;;32.60;21.20;;;;;;;1.13;100.00;95284.31;110264;1244;59695;-66
2023/11/25 05:48:53;;;;;;;30.60;19.90;;;;;;;1.13;100.00;95290.13;110290;1243;71013;-66
2023/11/25 05:51:45;;;;;;;32.90;19.00;;;;;;;1.14;100.00;95294.14;110215;1244;69602;-67
2023/11/25 05:54:16;;;;;;;35.80;22.60;;;;;;;1.15;100.00;95299.38;110286;1243;69318;-68
2023/11/25 05:56:50;;;;;;;31.40;19.10;;;;;;;1.16;100.00;95295.57;110216;1245;59697;-67
2023/11/25 05:59:20;;;;;;;36.90;21.30;;;;;;;1.17;100.00;95293.09;110182;1242;59676;-67
2023/11/25 06:01:50;;;;;;;33.20;21.20;;;;;;;1.19;100.00;95289.67;110328;1242;71282;-66
2023/11/25 06:04:20;;;;;;;29.20;18.40;;;;;;;1.19;100.00;95292.27;110348;1241;68467;-66
2023/11/25 06:06:51;;;;;;;34.20;21.20;;;;;;;1.19;100.00;95300.86;110260;1242;69397;-67
2023/11/25 06:09:20;;;;;;;35.90;22.70;;;;;;;1.12;100.00;95301.16;110274;1245;59735;-67
2023/11/25 06:11:51;;;;;;;31.00;21.90;;;;;;;0.90;100.00;95299.23;110271;1242;59631;-67
2023/11/25 06:14:20;;;;;;;31.30;20.70;;;;;;;0.93;100.00;95298.27;110276;1243;70425;-67
2023/11/25 06:16:49;;;;;;;32.80;20.00;;;;;;;0.81;100.00;95304.98;110228;1242;69234;-67
2023/11/25 06:19:20;;;;;;;24.30;17.70;;;;;;;0.91;100.00;95311.14;110190;1242;68256;-67
2023/11/25 06:21:50;;;;;;;27.00;17.70;;;;;;;0.85;100.00;95314.47;110199;1242;60130;-67
2023/11/25 06:24:19;;;;;;;25.70;16.30;;;;;;;0.85;100.00;95315.33;110229;1242;59636;-67
2023/11/25 06:26:50;;;;;;;33.60;20.90;;;;;;;0.86;100.00;95319.01;110212;1242;71987;-67
2023/11/25 06:29:18;;;;;;;;;;;;;;;0.88;100.00;95318.55;110222;1242;69238;-67
2023/11/25 06:31:49;;;;;;;26.50;15.90;;;;;;;0.88;100.00;95319.20;110243;1243;68510;-67
2023/11/25 06:34:19;;;;;;;26.30;17.50;;;;;;;0.99;100.00;95315.44;110186;1241;59700;-67
2023/11/25 06:36:49;;;;;;;29.80;18.60;;;;;;;0.99;100.00;95314.86;110198;1243;59747;-67
2023/11/25 06:39:22;;;;;;;24.00;17.10;;;;;;;0.99;100.00;95322.29;110234;1244;71282;-67
2023/11/25 06:41:53;;;;;;;25.00;16.40;;;;;;;1.04;100.00;95324.87;110216;1241;68533;-67
2023/11/25 06:44:23;;;;;;;22.00;13.80;;;;;;;1.03;100.00;95332.14;110225;1242;69293;-67
2023/11/25 06:46:53;;;;;;;32.30;20.70;;;;;;;1.04;100.00;95336.98;110201;1247;59710;-67
2023/11/25 06:49:21;;;;;;;31.00;18.90;;;;;;;1.19;100.00;95341.19;110218;1242;59743;-67
2023/11/25 06:51:51;;;;;;;34.40;22.40;;;;;;;1.21;100.00;95344.64;110252;1241;70786;-67
2023/11/25 06:54:20;;;;;;;28.70;19.40;;;;;;;1.22;100.00;95339.73;110184;1242;69694;-67
2023/11/25 06:56:51;;;;;;;28.30;18.70;;;;;;;1.27;100.00;95342.16;110219;1240;68812;-67
2023/11/25 06:59:20;;;;;;;;;;;;;;;1.31;100.00;95340.82;110192;1243;59673;-67
2023/11/25 07:01:54;;;;;;;27.40;17.10;;;;;;;1.36;100.00;95342.08;110234;1243;59680;-67
2023/11/25 07:04:24;;;;;;;26.40;17.10;;;;;;;1.40;100.00;95342.42;110280;1242;71220;-67
2023/11/25 07:06:54;;;;;;;24.10;16.00;;;;;;;1.44;100.00;95347.52;110269;1242;68439;-67
2023/11/25 07:09:24;;;;;;;19.50;13.80;;;;;;;1.49;100.00;95343.40;110203;1241;69318;-67
2023/11/25 07:11:54;;;;;;;25.60;16.30;;;;;;;1.53;100.00;95346.17;110259;1242;59679;-67
2023/11/25 07:14:23;;;;;;;;;;;;;;;1.58;100.00;95341.02;110273;1241;59758;-67
2023/11/25 07:16:53;;;;;;;22.50;14.50;;;;;;;1.63;100.00;95339.67;110250;1242;70392;-67
2023/11/25 07:19:24;;;;;;;19.90;13.70;;;;;;;1.68;100.00;95341.54;110245;1242;69395;-67
2023/11/25 07:21:54;;;;;;;18.20;13.10;;;;;;;1.74;100.00;95351.59;110205;1242;69278;-67
2023/11/25 07:24:27;;;;;;;17.70;12.80;;;;;;;1.77;100.00;95354.61;110189;1242;59679;-67
2023/11/25 07:27:01;;;;;;;20.10;15.10;;;;;;;1.82;100.00;95366.47;110230;1248;59767;-67
2023/11/25 07:29:32;;;;;;;22.10;15.20;;;;;;;1.85;100.00;95370.56;110262;1241;71405;-67
2023/11/25 07:32:02;;;;;;;;;;;;;;;1.88;100.00;95372.59;110238;1240;69281;-67
2023/11/25 07:34:32;;;;;;;23.80;16.50;;;;;;;1.90;100.00;95372.58;110193;1244;69359;-67
2023/11/25 07:37:03;;;;;;;29.40;16.50;;;;;;;1.95;100.00;95362.44;110258;1242;59690;-68
2023/11/25 07:39:33;;;;;;;24.70;16.90;;;;;;;1.99;100.00;95356.00;110252;1240;59744;-68
2023/11/25 07:42:04;;;;;;;28.90;17.30;;;;;;;2.03;100.00;95353.63;110250;1240;71240;-68
2023/11/25 07:44:34;;;;;;;33.30;22.70;;;;;;;2.09;100.00;95352.40;110147;1248;69208;-67
2023/11/25 07:47:03;;;;;;;34.50;21.00;;;;;;;2.11;100.00;95352.02;110296;1242;69736;-66
2023/11/25 07:49:33;;;;;;;40.00;27.40;;;;;;;2.15;100.00;95355.20;110269;1241;59709;-67
2023/11/25 07:52:03;;;;;;;39.40;26.00;;;;;;;2.15;100.00;95356.61;110273;1241;59738;-67
2023/11/25 07:54:32;;;;;;;41.60;26.00;;;;;;;2.13;100.00;95350.52;110291;1242;71447;-67
2023/11/25 07:57:03;;;;;;;34.70;23.00;;;;;;;2.22;100.00;95347.13;110295;1242;69240;-68
2023/11/25 07:59:31;;;;;;;36.60;22.80;;;;;;;2.28;100.00;95354.04;110229;1243;68949;-68
2023/11/25 08:02:02;;;;;;;36.40;24.00;;;;;;;2.31;100.00;95355.77;110227;1241;59688;-70
2023/11/25 08:04:33;;;;;;;35.90;23.70;;;;;;;2.33;100.00;95351.31;110254;1241;59682;-67
2023/11/25 08:07:02;;;;;;;34.40;24.70;;;;;;;2.33;100.00;95349.44;110232;1241;71890;-67
2023/11/25 08:09:32;;;;;;;39.50;25.50;;;;;;;2.42;100.00;95351.50;110255;1242;69864;-67
2023/11/25 08:12:03;;;;;;;36.90;23.80;;;;;;;2.46;100.00;95350.67;110191;1240;67665;-66
2023/11/25 08:14:32;;;;;;;38.90;23.30;;;;;;;2.46;100.00;95354.45;110253;1242;59667;-68
2023/11/25 08:17:02;;;;;;;32.80;21.10;;;;;;;2.49;100.00;95353.89;110331;1242;59690;-67
2023/11/25 08:19:32;;;;;;;33.50;22.50;;;;;;;2.50;100.00;95355.73;110315;1240;71442;-67
2023/11/25 08:22:01;;;;;;;30.80;20.20;;;;;;;2.49;100.00;95358.69;110273;1242;69694;-67
2023/11/25 08:24:30;;;;;;;30.60;19.80;;;;;;;2.52;100.00;95362.08;110195;1242;70001;-68
2023/11/25 08:26:59;;;;;;;29.30;19.50;;;;;;;2.55;100.00;95367.37;110200;1248;59689;-70
2023/11/25 08:29:28;;;;;;;28.80;19.00;;;;;;;2.57;100.00;95370.04;110247;1242;59635;-69
2023/11/25 08:31:57;;;;;;;29.80;19.50;;;;;;;2.58;100.00;95371.52;110251;1242;71983;-70
2023/11/25 08:34:27;;;;;;;28.80;20.20;;;;;;;2.61;100.00;95370.42;110231;1242;69330;-71
2023/11/25 08:36:56;;;;;;;32.30;22.10;;;;;;;2.64;100.00;95368.84;110205;1242;69622;-72
2023/11/25 08:39:25;;;;;;;28.70;19.70;;;;;;;2.65;100.00;95366.66;110134;1242;59821;-72
2023/11/25 08:41:57;;;;;;;29.40;19.10;;;;;;;2.70;100.00;95380.24;110161;1244;59737;-72
2023/11/25 08:44:27;;;;;;;23.20;17.10;;;;;;;2.73;100.00;95380.67;110111;1245;71959;-71
2023/11/25 08:46:59;;;;;;;27.40;19.40;;;;;;;2.77;100.00;95372.48;110114;1245;69068;-71
2023/11/25 08:49:28;;;;;;;32.20;22.20;;;;;;;2.82;100.00;95371.77;110192;1242;69249;-69
2023/11/25 08:51:57;;;;;;;26.20;18.30;;;;;;;2.85;100.00;95367.63;110205;1243;59690;-69
2023/11/25 08:54:36;;;;;;;28.10;18.10;;;;;;;2.87;100.00;95355.61;110158;1242;59692;-69
2023/11/25 08:57:08;;;;;;;28.40;19.40;;;;;;;2.89;100.00;95349.95;110164;1241;70434;-69
2023/11/25 08:59:39;;;;;;;24.10;18.20;;;;;;;2.92;100.00;95350.73;110201;1241;69807;-69
2023/11/25 09:02:12;;;;;;;31.90;22.60;;;;;;;2.94;100.00;95350.57;110104;1244;68858;-69
2023/11/25 09:04:42;;;;;;;28.70;20.60;;;;;;;2.97;100.00;95349.81;110194;1242;59707;-69
2023/11/25 09:07:14;;;;;;;28.10;18.80;;;;;;;2.98;100.00;95357.02;110191;1241;59699;-70
2023/11/25 09:09:45;;;;;;;27.60;17.90;;;;;;;2.99;100.00;95348.61;110190;1249;72462;-70
2023/11/25 09:12:16;;;;;;;26.80;18.40;;;;;;;3.02;100.00;95339.83;110221;1242;69219;-70
2023/11/25 09:14:46;;;;;;;25.70;17.40;;;;;;;3.04;100.00;95330.71;110196;1240;68704;-71
2023/11/25 09:17:16;;;;;;;25.50;17.20;;;;;;;3.05;100.00;95330.45;110188;1243;59728;-70
2023/11/25 09:19:45;;;;;;;26.40;18.30;;;;;;;3.09;100.00;95340.37;110234;1242;59671;-70
2023/11/25 09:22:15;;;;;;;24.60;16.60;;;;;;;3.09;100.00;95338.61;110286;1241;70677;-69
2023/11/25 09:24:44;;;;;;;24.10;16.60;;;;;;;3.08;100.00;95338.00;110212;1242;69235;-69
2023/11/25 09:27:13;;;;;;;19.30;14.00;;;;;;;3.05;100.00;95340.05;110229;1241;68587;-69
2023/11/25 09:29:43;;;;;;;16.70;11.80;;;;;;;3.08;100.00;95337.67;110231;1240;59729;-69
2023/11/25 09:32:12;;;;;;;19.20;12.10;;;;;;;3.12;100.00;95318.98;110256;1242;59646;-69
2023/11/25 09:34:41;;;;;;;18.00;12.00;;;;;;;3.11;100.00;95313.30;110283;1242;71238;-69
2023/11/25 09:37:11;;;;;;;14.20;11.00;;;;;;;3.06;100.00;95311.27;110245;1240;68633;-69
2023/11/25 09:39:41;;;;;;;16.00;11.00;;;;;;;3.12;100.00;95315.00;110084;1245;68900;-69
2023/11/25 09:42:11;;;;;;;16.50;11.30;;;;;;;3.16;100.00;95310.88;110196;1240;59695;-69
2023/11/25 09:44:42;;;;;;;16.40;10.90;;;;;;;3.19;100.00;95324.07;110280;1242;59713;-70
2023/11/25 09:47:11;;;;;;;16.60;11.80;;;;;;;3.19;100.00;95337.86;110209;1241;71518;-69
2023/11/25 09:49:41;;;;;;;14.50;11.40;;;;;;;3.16;100.00;95345.48;110285;1240;68283;-69
2023/11/25 09:52:14;;;;;;;15.90;11.80;;;;;;;3.13;100.00;95350.52;110200;1242;68519;-69
2023/11/25 09:54:46;;;;;;;15.10;10.60;;;;;;;3.12;100.00;95344.95;110300;1242;59744;-70
2023/11/25 09:57:19;;;;;;;17.50;11.10;;;;;;;3.09;100.00;95323.10;110244;1242;59706;-69
2023/11/25 09:59:49;;;;;;;15.10;10.40;;;;;;;3.08;100.00;95314.27;110221;1246;71395;-69
2023/11/25 10:02:18;;;;;;;;;;;;;;;3.07;100.00;95330.00;110213;1244;69852;-69
2023/11/25 10:04:49;;;;;;;12.80;9.20;;;;;;;3.08;100.00;95332.84;110158;1241;69288;-69
2023/11/25 10:07:20;;;;;;;12.90;9.40;;;;;;;3.09;100.00;95333.42;110147;1241;59768;-69
2023/11/25 10:09:51;;;;;;;13.60;8.70;;;;;;;3.10;100.00;95328.92;110170;1245;59691;-69
2023/11/25 10:12:19;;;;;;;16.00;10.30;;;;;;;3.09;100.00;95323.50;110149;1245;71327;-69
2023/11/25 10:14:49;;;;;;;14.20;10.20;;;;;;;3.08;100.00;95328.71;110155;1244;69296;-69
2023/11/25 10:17:21;;;;;;;12.90;10.20;;;;;;;3.05;100.00;95331.33;110135;1241;70006;-69
2023/11/25 10:20:22;;;;;;;15.30;10.80;;;;;;;3.04;100.00;95329.69;110144;1244;59675;-69
2023/11/25 10:22:53;;;;;;;17.80;11.70;;;;;;;2.99;100.00;95326.94;110169;1244;59682;-69
2023/11/25 10:25:23;;;;;;;19.00;12.00;;;;;;;3.05;100.00;95324.44;110177;1244;71962;-69
2023/11/25 10:27:53;;;;;;;17.60;10.70;;;;;;;3.09;100.00;95322.77;110100;1244;69265;-69
2023/11/25 10:30:24;;;;;;;15.30;11.00;;;;;;;3.14;100.00;95321.52;110130;1243;69877;-69
2023/11/25 10:32:56;;;;;;;16.30;11.10;;;;;;;3.20;100.00;95323.12;110121;1245;59766;-69
2023/11/25 10:35:26;;;;;;;15.40;11.30;;;;;;;3.26;100.00;95319.55;110126;1244;59643;-69
2023/11/25 10:37:56;;;;;;;15.30;10.90;;;;;;;3.30;100.00;95315.31;110121;1244;71957;-69
2023/11/25 10:40:27;;;;;;;17.30;11.90;;;;;;;3.34;100.00;95309.52;110094;1244;69234;-69
2023/11/25 10:42:56;;;;;;;15.20;10.40;;;;;;;3.37;100.00;95302.86;110105;1245;69247;-69
2023/11/25 10:45:27;;;;;;;14.40;10.70;;;;;;;3.43;100.00;95300.34;110147;1244;59644;-69
2023/11/25 10:47:57;;;;;;;14.40;10.60;;;;;;;3.49;100.00;95298.48;110140;1245;59727;-69
2023/11/25 10:50:30;;;;;;;15.90;11.00;;;;;;;3.52;100.00;95297.89;110112;1243;70657;-69
2023/11/25 10:53:04;;;;;;;16.50;11.10;;;;;;;3.57;100.00;95294.57;110166;1245;69224;-69
2023/11/25 10:55:35;;;;;;;15.50;11.50;;;;;;;3.60;100.00;95291.42;110158;1241;69266;-69
2023/11/25 10:58:05;;;;;;;16.70;12.10;;;;;;;3.55;100.00;95289.43;110142;1241;59735;-69
2023/11/25 11:00:35;;;;;;;20.80;15.60;;;;;;;3.51;100.00;95288.86;109787;1240;511811;-70
2023/11/25 11:03:12;;;;;;;25.10;18.30;;;;;;;3.52;100.00;95285.20;110201;1242;70656;-70
2023/11/25 11:06:01;;;;;;;26.50;18.00;;;;;;;3.50;100.00;95279.46;110227;1245;67727;-70
2023/11/25 11:08:32;;;;;;;30.70;20.90;;;;;;;3.48;100.00;95281.70;110217;1242;69934;-69
2023/11/25 11:11:14;;;;;;;29.70;21.90;;;;;;;3.48;100.00;95281.85;110194;1240;59683;-69
2023/11/25 11:13:55;;;;;;;27.80;18.50;;;;;;;3.49;100.00;95280.27;110222;1242;59679;-70
2023/11/25 11:16:45;;;;;;;26.70;17.90;;;;;;;3.52;100.00;95275.70;110231;1241;70633;-68
2023/11/25 11:19:19;;;;;;;23.40;16.00;;;;;;;3.63;100.00;95274.02;110218;1242;69821;-68
2023/11/25 11:21:55;;;;;;;20.70;16.10;;;;;;;3.72;100.00;95277.27;110186;1241;69867;-68
2023/11/25 11:24:39;;;;;;;20.40;15.10;;;;;;;3.75;100.00;95273.91;110231;1248;59760;-69
2023/11/25 11:27:26;;;;;;;21.10;15.40;;;;;;;3.77;100.00;95282.33;110240;1242;59691;-68
2023/11/25 11:30:29;;;;;;;21.90;16.20;;;;;;;3.80;100.00;95272.24;110234;1242;71007;-68
2023/11/25 11:33:01;;;;;;;19.90;15.10;;;;;;;3.82;100.00;95271.63;110120;1242;69095;-68
2023/11/25 11:35:37;;;;;;;22.40;14.60;;;;;;;3.89;100.00;95278.50;110192;1242;68506;-68